sensor_id;sensor_type;location;lat;lon;timestamp;temperature;humidity
8269;DHT22;4174;48.304;16.364;2022-08-01T00:05:21;19.00;99.90
8269;DHT22;4174;48.304;16.364;2022-08-01T00:11:24;18.90;99.90
8269;DHT22;4174;48.304;16.364;2022-08-01T00:17:28;18.90;99.90
8269;DHT22;4174;48.304;16.364;2022-08-01T00:23:30;18.80;99.90
8269;DHT22;4174;48.304;16.364;2022-08-01T00:29:32;18.70;99.90
8269;DHT22;4174;48.304;16.364;2022-08-01T00:35:36;18.70;99.90
8269;DHT22;4174;48.304;16.364;2022-08-01T00:41:39;18.60;99.90
8269;DHT22;4174;48.304;16.364;2022-08-01T00:47:42;18.50;99.90
8269;DHT22;4174;48.304;16.364;2022-08-01T00:53:45;18.50;99.90
8269;DHT22;4174;48.304;16.364;2022-08-01T00:59:48;18.50;99.90
8269;DHT22;4174;48.304;16.364;2022-08-01T01:05:55;18.60;99.90
8269;DHT22;4174;48.304;16.364;2022-08-01T01:12:12;18.60;99.90
8269;DHT22;4174;48.304;16.364;2022-08-01T01:18:33;18.60;99.90
8269;DHT22;4174;48.304;16.364;2022-08-01T01:24:44;18.60;99.90
8269;DHT22;4174;48.304;16.364;2022-08-01T01:30:44;18.60;99.90
8269;DHT22;4174;48.304;16.364;2022-08-01T01:36:45;18.60;99.90
8269;DHT22;4174;48.304;16.364;2022-08-01T01:42:49;18.60;99.90
8269;DHT22;4174;48.304;16.364;2022-08-01T01:48:52;18.60;99.90
8269;DHT22;4174;48.304;16.364;2022-08-01T01:54:54;18.90;99.90
8269;DHT22;4174;48.304;16.364;2022-08-01T02:00:57;18.90;99.90
8269;DHT22;4174;48.304;16.364;2022-08-01T02:07:00;19.10;99.90
8269;DHT22;4174;48.304;16.364;2022-08-01T02:13:02;19.40;99.90
8269;DHT22;4174;48.304;16.364;2022-08-01T02:19:04;19.50;99.90
8269;DHT22;4174;48.304;16.364;2022-08-01T02:31:16;19.80;99.90
8269;DHT22;4174;48.304;16.364;2022-08-01T02:37:16;19.90;99.90
8269;DHT22;4174;48.304;16.364;2022-08-01T02:43:20;19.90;99.90
8269;DHT22;4174;48.304;16.364;2022-08-01T02:49:21;19.90;99.90
8269;DHT22;4174;48.304;16.364;2022-08-01T02:55:26;19.90;99.90
8269;DHT22;4174;48.304;16.364;2022-08-01T03:01:28;19.90;99.90
8269;DHT22;4174;48.304;16.364;2022-08-01T03:07:32;19.80;99.90
8269;DHT22;4174;48.304;16.364;2022-08-01T03:13:34;19.80;99.90
8269;DHT22;4174;48.304;16.364;2022-08-01T03:19:38;19.80;99.90
8269;DHT22;4174;48.304;16.364;2022-08-01T03:25:40;19.80;99.90
8269;DHT22;4174;48.304;16.364;2022-08-01T03:31:43;19.80;99.90
8269;DHT22;4174;48.304;16.364;2022-08-01T03:37:46;19.80;99.90
8269;DHT22;4174;48.304;16.364;2022-08-01T03:43:48;19.80;99.90
8269;DHT22;4174;48.304;16.364;2022-08-01T03:49:50;19.80;99.90
8269;DHT22;4174;48.304;16.364;2022-08-01T03:55:52;19.80;99.90
8269;DHT22;4174;48.304;16.364;2022-08-01T04:01:55;19.80;99.90
8269;DHT22;4174;48.304;16.364;2022-08-01T04:07:58;19.90;99.90
8269;DHT22;4174;48.304;16.364;2022-08-01T04:14:01;19.90;99.90
8269;DHT22;4174;48.304;16.364;2022-08-01T04:20:04;19.90;99.90
8269;DHT22;4174;48.304;16.364;2022-08-01T04:26:08;20.10;99.90
8269;DHT22;4174;48.304;16.364;2022-08-01T04:32:11;20.00;99.90
8269;DHT22;4174;48.304;16.364;2022-08-01T04:38:15;20.10;99.90
8269;DHT22;4174;48.304;16.364;2022-08-01T04:44:16;20.20;99.90
8269;DHT22;4174;48.304;16.364;2022-08-01T04:50:19;20.40;99.90
8269;DHT22;4174;48.304;16.364;2022-08-01T04:56:23;20.60;99.90
8269;DHT22;4174;48.304;16.364;2022-08-01T05:02:26;20.60;99.90
8269;DHT22;4174;48.304;16.364;2022-08-01T05:08:29;21.20;99.90
8269;DHT22;4174;48.304;16.364;2022-08-01T05:14:32;21.40;99.90
8269;DHT22;4174;48.304;16.364;2022-08-01T05:20:35;22.70;99.90
8269;DHT22;4174;48.304;16.364;2022-08-01T05:26:38;21.90;99.90
8269;DHT22;4174;48.304;16.364;2022-08-01T05:32:40;21.90;99.90
8269;DHT22;4174;48.304;16.364;2022-08-01T05:38:44;21.70;99.90
8269;DHT22;4174;48.304;16.364;2022-08-01T05:44:46;21.70;99.90
8269;DHT22;4174;48.304;16.364;2022-08-01T05:50:49;22.00;99.90
8269;DHT22;4174;48.304;16.364;2022-08-01T05:56:51;22.30;99.90
8269;DHT22;4174;48.304;16.364;2022-08-01T06:02:55;22.80;99.90
8269;DHT22;4174;48.304;16.364;2022-08-01T06:08:58;22.80;99.90
8269;DHT22;4174;48.304;16.364;2022-08-01T06:15:02;23.50;99.90
8269;DHT22;4174;48.304;16.364;2022-08-01T06:21:04;23.50;99.90
8269;DHT22;4174;48.304;16.364;2022-08-01T06:27:07;23.70;99.90
8269;DHT22;4174;48.304;16.364;2022-08-01T06:33:10;24.10;99.90
8269;DHT22;4174;48.304;16.364;2022-08-01T06:39:14;24.70;99.90
8269;DHT22;4174;48.304;16.364;2022-08-01T06:45:17;24.90;99.90
8269;DHT22;4174;48.304;16.364;2022-08-01T06:51:19;24.90;99.90
8269;DHT22;4174;48.304;16.364;2022-08-01T06:57:23;25.20;99.90
8269;DHT22;4174;48.304;16.364;2022-08-01T07:03:26;25.60;99.90
8269;DHT22;4174;48.304;16.364;2022-08-01T07:09:28;26.10;99.90
8269;DHT22;4174;48.304;16.364;2022-08-01T07:15:31;26.20;99.90
8269;DHT22;4174;48.304;16.364;2022-08-01T07:21:34;26.50;99.90
8269;DHT22;4174;48.304;16.364;2022-08-01T07:27:37;27.00;99.90
8269;DHT22;4174;48.304;16.364;2022-08-01T07:33:42;27.20;99.90
8269;DHT22;4174;48.304;16.364;2022-08-01T07:39:45;27.20;99.90
8269;DHT22;4174;48.304;16.364;2022-08-01T07:45:48;26.70;99.90
8269;DHT22;4174;48.304;16.364;2022-08-01T07:51:51;26.10;99.90
8269;DHT22;4174;48.304;16.364;2022-08-01T07:57:54;25.50;99.90
8269;DHT22;4174;48.304;16.364;2022-08-01T08:03:58;25.50;99.90
8269;DHT22;4174;48.304;16.364;2022-08-01T08:10:01;25.30;99.90
8269;DHT22;4174;48.304;16.364;2022-08-01T08:16:03;25.20;99.90
8269;DHT22;4174;48.304;16.364;2022-08-01T08:22:08;25.40;99.90
8269;DHT22;4174;48.304;16.364;2022-08-01T08:28:11;25.70;99.90
8269;DHT22;4174;48.304;16.364;2022-08-01T08:34:14;25.70;99.90
8269;DHT22;4174;48.304;16.364;2022-08-01T08:40:19;26.30;99.90
8269;DHT22;4174;48.304;16.364;2022-08-01T08:46:21;26.30;99.90
8269;DHT22;4174;48.304;16.364;2022-08-01T08:52:25;29.30;99.90
8269;DHT22;4174;48.304;16.364;2022-08-01T08:58:28;29.30;99.90
8269;DHT22;4174;48.304;16.364;2022-08-01T09:04:31;31.90;99.90
8269;DHT22;4174;48.304;16.364;2022-08-01T09:10:34;33.90;93.80
8269;DHT22;4174;48.304;16.364;2022-08-01T09:16:40;35.00;74.30
8269;DHT22;4174;48.304;16.364;2022-08-01T09:22:43;34.90;74.10
8269;DHT22;4174;48.304;16.364;2022-08-01T09:28:46;35.40;69.50
8269;DHT22;4174;48.304;16.364;2022-08-01T09:34:48;33.10;72.90
8269;DHT22;4174;48.304;16.364;2022-08-01T09:40:53;32.40;82.20
8269;DHT22;4174;48.304;16.364;2022-08-01T09:46:56;32.40;82.10
8269;DHT22;4174;48.304;16.364;2022-08-01T09:52:58;31.60;84.90
8269;DHT22;4174;48.304;16.364;2022-08-01T09:59:01;31.00;88.90
8269;DHT22;4174;48.304;16.364;2022-08-01T10:05:06;31.20;90.40
8269;DHT22;4174;48.304;16.364;2022-08-01T10:11:10;30.50;91.20
8269;DHT22;4174;48.304;16.364;2022-08-01T10:17:13;30.30;91.80
8269;DHT22;4174;48.304;16.364;2022-08-01T10:23:15;31.90;95.10
8269;DHT22;4174;48.304;16.364;2022-08-01T10:29:18;32.70;85.00
8269;DHT22;4174;48.304;16.364;2022-08-01T10:35:20;33.80;86.00
8269;DHT22;4174;48.304;16.364;2022-08-01T10:41:24;36.30;68.70
8269;DHT22;4174;48.304;16.364;2022-08-01T10:47:29;36.20;68.40
8269;DHT22;4174;48.304;16.364;2022-08-01T10:53:30;37.00;68.00
8269;DHT22;4174;48.304;16.364;2022-08-01T10:59:34;36.80;61.30
8269;DHT22;4174;48.304;16.364;2022-08-01T11:05:36;35.40;69.00
8269;DHT22;4174;48.304;16.364;2022-08-01T11:17:57;33.40;69.60
8269;DHT22;4174;48.304;16.364;2022-08-01T11:23:59;32.40;69.00
8269;DHT22;4174;48.304;16.364;2022-08-01T11:36:24;33.50;67.80
8269;DHT22;4174;48.304;16.364;2022-08-01T11:42:29;34.20;66.00
8269;DHT22;4174;48.304;16.364;2022-08-01T11:48:32;34.20;65.70
8269;DHT22;4174;48.304;16.364;2022-08-01T11:54:36;35.40;61.00
8269;DHT22;4174;48.304;16.364;2022-08-01T12:00:39;35.40;61.30
8269;DHT22;4174;48.304;16.364;2022-08-01T12:06:42;35.30;61.10
8269;DHT22;4174;48.304;16.364;2022-08-01T12:12:46;34.20;63.80
8269;DHT22;4174;48.304;16.364;2022-08-01T12:18:48;32.80;70.60
8269;DHT22;4174;48.304;16.364;2022-08-01T12:24:51;31.20;73.30
8269;DHT22;4174;48.304;16.364;2022-08-01T12:30:53;29.60;80.00
8269;DHT22;4174;48.304;16.364;2022-08-01T12:36:57;28.60;82.80
8269;DHT22;4174;48.304;16.364;2022-08-01T12:43:00;27.80;92.60
8269;DHT22;4174;48.304;16.364;2022-08-01T12:49:03;26.30;99.90
8269;DHT22;4174;48.304;16.364;2022-08-01T12:55:08;26.30;99.90
8269;DHT22;4174;48.304;16.364;2022-08-01T13:01:14;26.30;99.90
8269;DHT22;4174;48.304;16.364;2022-08-01T13:07:17;28.10;99.90
8269;DHT22;4174;48.304;16.364;2022-08-01T13:13:19;29.70;96.40
8269;DHT22;4174;48.304;16.364;2022-08-01T13:19:40;30.00;93.40
8269;DHT22;4174;48.304;16.364;2022-08-01T13:25:24;29.10;93.70
8269;DHT22;4174;48.304;16.364;2022-08-01T13:31:31;28.70;96.80
8269;DHT22;4174;48.304;16.364;2022-08-01T13:37:33;28.50;95.10
8269;DHT22;4174;48.304;16.364;2022-08-01T13:43:36;29.10;95.50
8269;DHT22;4174;48.304;16.364;2022-08-01T13:49:38;29.80;93.50
8269;DHT22;4174;48.304;16.364;2022-08-01T13:55:41;30.20;92.00
8269;DHT22;4174;48.304;16.364;2022-08-01T14:01:45;30.10;90.60
8269;DHT22;4174;48.304;16.364;2022-08-01T14:07:48;30.10;90.60
8269;DHT22;4174;48.304;16.364;2022-08-01T14:13:50;30.60;90.70
8269;DHT22;4174;48.304;16.364;2022-08-01T14:19:54;30.70;88.00
8269;DHT22;4174;48.304;16.364;2022-08-01T14:25:56;30.60;87.90
8269;DHT22;4174;48.304;16.364;2022-08-01T14:31:59;30.60;86.30
8269;DHT22;4174;48.304;16.364;2022-08-01T14:38:03;30.60;83.60
8269;DHT22;4174;48.304;16.364;2022-08-01T14:44:06;30.50;83.50
8269;DHT22;4174;48.304;16.364;2022-08-01T14:50:10;30.30;82.60
8269;DHT22;4174;48.304;16.364;2022-08-01T14:56:12;29.30;88.00
8269;DHT22;4174;48.304;16.364;2022-08-01T15:02:15;29.20;88.00
8269;DHT22;4174;48.304;16.364;2022-08-01T15:08:18;29.20;91.50
8269;DHT22;4174;48.304;16.364;2022-08-01T15:14:21;29.50;89.10
8269;DHT22;4174;48.304;16.364;2022-08-01T15:20:29;29.50;91.80
8269;DHT22;4174;48.304;16.364;2022-08-01T15:26:32;29.40;91.90
8269;DHT22;4174;48.304;16.364;2022-08-01T15:32:36;29.00;92.90
8269;DHT22;4174;48.304;16.364;2022-08-01T15:38:38;29.00;92.90
8269;DHT22;4174;48.304;16.364;2022-08-01T15:44:41;28.70;94.50
8269;DHT22;4174;48.304;16.364;2022-08-01T15:50:44;28.70;94.00
8269;DHT22;4174;48.304;16.364;2022-08-01T15:56:47;28.90;95.70
8269;DHT22;4174;48.304;16.364;2022-08-01T16:02:50;28.80;95.50
8269;DHT22;4174;48.304;16.364;2022-08-01T16:08:53;28.70;95.90
8269;DHT22;4174;48.304;16.364;2022-08-01T16:14:56;28.70;95.90
8269;DHT22;4174;48.304;16.364;2022-08-01T16:20:59;28.50;96.90
8269;DHT22;4174;48.304;16.364;2022-08-01T16:27:02;28.40;98.20
8269;DHT22;4174;48.304;16.364;2022-08-01T16:33:06;28.10;98.90
8269;DHT22;4174;48.304;16.364;2022-08-01T16:39:09;27.70;99.90
8269;DHT22;4174;48.304;16.364;2022-08-01T16:45:12;27.40;99.90
8269;DHT22;4174;48.304;16.364;2022-08-01T16:51:15;27.20;99.90
8269;DHT22;4174;48.304;16.364;2022-08-01T16:57:18;27.10;99.90
8269;DHT22;4174;48.304;16.364;2022-08-01T17:03:21;27.10;99.90
8269;DHT22;4174;48.304;16.364;2022-08-01T17:09:24;26.90;99.90
8269;DHT22;4174;48.304;16.364;2022-08-01T17:15:26;26.70;99.90
8269;DHT22;4174;48.304;16.364;2022-08-01T17:21:29;26.50;99.90
8269;DHT22;4174;48.304;16.364;2022-08-01T17:27:32;26.30;99.90
8269;DHT22;4174;48.304;16.364;2022-08-01T17:33:35;26.10;99.90
8269;DHT22;4174;48.304;16.364;2022-08-01T17:39:38;25.90;99.90
8269;DHT22;4174;48.304;16.364;2022-08-01T17:45:41;25.80;99.90
8269;DHT22;4174;48.304;16.364;2022-08-01T17:51:45;25.50;99.90
8269;DHT22;4174;48.304;16.364;2022-08-01T17:57:48;25.50;99.90
8269;DHT22;4174;48.304;16.364;2022-08-01T18:03:50;25.40;99.90
8269;DHT22;4174;48.304;16.364;2022-08-01T18:09:55;25.30;99.90
8269;DHT22;4174;48.304;16.364;2022-08-01T18:15:57;25.10;99.90
8269;DHT22;4174;48.304;16.364;2022-08-01T18:21:59;24.90;99.90
8269;DHT22;4174;48.304;16.364;2022-08-01T18:28:03;24.70;99.90
8269;DHT22;4174;48.304;16.364;2022-08-01T18:34:06;24.50;99.90
8269;DHT22;4174;48.304;16.364;2022-08-01T18:40:10;24.30;99.90
8269;DHT22;4174;48.304;16.364;2022-08-01T18:46:14;24.10;99.90
8269;DHT22;4174;48.304;16.364;2022-08-01T18:52:16;23.90;99.90
8269;DHT22;4174;48.304;16.364;2022-08-01T18:58:19;23.70;99.90
8269;DHT22;4174;48.304;16.364;2022-08-01T19:04:22;23.50;99.90
8269;DHT22;4174;48.304;16.364;2022-08-01T19:10:25;23.40;99.90
8269;DHT22;4174;48.304;16.364;2022-08-01T19:16:28;23.20;99.90
8269;DHT22;4174;48.304;16.364;2022-08-01T19:22:30;23.10;99.90
8269;DHT22;4174;48.304;16.364;2022-08-01T19:28:35;22.90;99.90
8269;DHT22;4174;48.304;16.364;2022-08-01T19:34:38;22.80;99.90
8269;DHT22;4174;48.304;16.364;2022-08-01T19:40:37;22.80;99.90
8269;DHT22;4174;48.304;16.364;2022-08-01T19:46:40;22.80;99.90
8269;DHT22;4174;48.304;16.364;2022-08-01T19:52:42;22.80;99.90
8269;DHT22;4174;48.304;16.364;2022-08-01T19:58:46;23.00;99.90
8269;DHT22;4174;48.304;16.364;2022-08-01T20:04:47;23.00;99.90
8269;DHT22;4174;48.304;16.364;2022-08-01T20:10:50;21.40;99.90
8269;DHT22;4174;48.304;16.364;2022-08-01T20:16:54;21.30;99.90
8269;DHT22;4174;48.304;16.364;2022-08-01T20:22:57;20.40;99.90
8269;DHT22;4174;48.304;16.364;2022-08-01T20:29:00;20.30;99.90
8269;DHT22;4174;48.304;16.364;2022-08-01T20:35:02;20.20;99.90
8269;DHT22;4174;48.304;16.364;2022-08-01T20:41:05;20.10;99.90
8269;DHT22;4174;48.304;16.364;2022-08-01T20:47:09;20.00;99.90
8269;DHT22;4174;48.304;16.364;2022-08-01T20:53:12;20.00;99.90
8269;DHT22;4174;48.304;16.364;2022-08-01T20:59:21;19.90;99.90
8269;DHT22;4174;48.304;16.364;2022-08-01T21:05:26;19.90;99.90
8269;DHT22;4174;48.304;16.364;2022-08-01T21:11:25;19.90;99.90
8269;DHT22;4174;48.304;16.364;2022-08-01T21:30:03;19.80;99.90
8269;DHT22;4174;48.304;16.364;2022-08-01T21:36:04;19.70;99.90
8269;DHT22;4174;48.304;16.364;2022-08-01T21:42:07;19.70;99.90
8269;DHT22;4174;48.304;16.364;2022-08-01T21:48:09;19.50;99.90
8269;DHT22;4174;48.304;16.364;2022-08-01T21:54:27;19.40;99.90
8269;DHT22;4174;48.304;16.364;2022-08-01T22:00:29;19.40;99.90
8269;DHT22;4174;48.304;16.364;2022-08-01T22:06:32;19.40;99.90
8269;DHT22;4174;48.304;16.364;2022-08-01T22:12:35;19.40;99.90
8269;DHT22;4174;48.304;16.364;2022-08-01T22:18:37;19.40;99.90
8269;DHT22;4174;48.304;16.364;2022-08-01T22:24:40;19.40;99.90
8269;DHT22;4174;48.304;16.364;2022-08-01T22:30:43;19.50;99.90
8269;DHT22;4174;48.304;16.364;2022-08-01T22:36:45;19.60;99.90
8269;DHT22;4174;48.304;16.364;2022-08-01T22:42:50;19.60;99.90
8269;DHT22;4174;48.304;16.364;2022-08-01T22:48:55;19.60;99.90
8269;DHT22;4174;48.304;16.364;2022-08-01T22:55:00;19.60;99.90
8269;DHT22;4174;48.304;16.364;2022-08-01T23:01:01;19.70;99.90
8269;DHT22;4174;48.304;16.364;2022-08-01T23:07:04;19.60;99.90
8269;DHT22;4174;48.304;16.364;2022-08-01T23:13:06;19.60;99.90
8269;DHT22;4174;48.304;16.364;2022-08-01T23:19:08;19.40;99.90
8269;DHT22;4174;48.304;16.364;2022-08-01T23:25:12;19.30;99.90
8269;DHT22;4174;48.304;16.364;2022-08-01T23:31:14;19.20;99.90
8269;DHT22;4174;48.304;16.364;2022-08-01T23:37:17;19.20;99.90
8269;DHT22;4174;48.304;16.364;2022-08-01T23:43:19;19.20;99.90
8269;DHT22;4174;48.304;16.364;2022-08-01T23:49:22;19.20;99.90
8269;DHT22;4174;48.304;16.364;2022-08-01T23:55:25;19.10;99.90
